Time;durP1;ratioP1;P1;durP2;ratioP2;P2;SDS_P1;SDS_P2;PMS_P1;PMS_P2;Temp;Humidity;BMP_temperature;BMP_pressure;BME280_temperature;BME280_humidity;BME280_pressure;Samples;Min_cycle;Max_cycle;Signal;HPM_P1;HPM_P2
2022/01/31 00:02:18;;;;;;;0.90;0.80;;;4.10;99.90;;;;;;4995831;28;20328;-81
2022/01/31 00:04:44;;;;;;;0.93;0.83;;;4.10;99.90;;;;;;4990810;28;20203;-81
2022/01/31 00:07:12;;;;;;;1.00;0.90;;;4.10;99.90;;;;;;5005416;28;20194;-81
2022/01/31 00:09:39;;;;;;;1.00;0.90;;;4.00;99.90;;;;;;4991388;28;20258;-81
2022/01/31 00:12:11;;;;;;;0.83;0.80;;;4.00;99.90;;;;;;4993345;28;20435;-81
2022/01/31 00:14:49;;;;;;;0.90;0.80;;;4.00;99.90;;;;;;5010680;28;20465;-81
2022/01/31 00:17:16;;;;;;;0.90;0.80;;;4.00;99.90;;;;;;5006451;28;20451;-81
2022/01/31 00:19:43;;;;;;;1.00;0.90;;;4.00;99.90;;;;;;5010187;28;20527;-81
2022/01/31 00:22:11;;;;;;;0.90;0.80;;;4.00;99.90;;;;;;5010652;28;20477;-81
2022/01/31 00:24:37;;;;;;;1.00;0.90;;;3.90;99.90;;;;;;5008949;28;20443;-81
2022/01/31 00:27:04;;;;;;;11.13;2.90;;;3.90;99.90;;;;;;5005202;28;20489;-81
2022/01/31 00:29:30;;;;;;;0.90;0.80;;;3.90;99.90;;;;;;5005747;28;20443;-81
2022/01/31 00:31:56;;;;;;;1.00;0.90;;;3.90;99.90;;;;;;5002448;28;20446;-81
2022/01/31 00:34:22;;;;;;;1.00;0.90;;;3.80;99.90;;;;;;4986986;28;20820;-81
2022/01/31 00:36:47;;;;;;;1.10;1.00;;;3.80;99.90;;;;;;5013300;28;20481;-81
2022/01/31 00:39:13;;;;;;;0.87;0.80;;;3.80;99.90;;;;;;5012472;28;20200;-81
2022/01/31 00:41:39;;;;;;;2.03;1.93;;;3.80;99.90;;;;;;5009798;28;20787;-81
2022/01/31 00:44:24;;;;;;;0.97;0.87;;;3.90;99.90;;;;;;5009081;28;20196;-81
2022/01/31 00:46:54;;;;;;;0.80;0.80;;;3.80;99.90;;;;;;5002732;28;20188;-80
2022/01/31 00:51:59;;;;;;;1.00;0.90;;;3.80;99.90;;;;;;5004521;28;20548;-81
2022/01/31 00:54:24;;;;;;;1.00;0.90;;;3.80;99.90;;;;;;4991928;28;20459;-81
2022/01/31 00:56:51;;;;;;;0.90;0.80;;;3.80;99.90;;;;;;5009657;28;20504;-81
2022/01/31 00:59:17;;;;;;;1.00;0.90;;;3.70;99.90;;;;;;5008090;28;20597;-81
2022/01/31 01:01:43;;;;;;;1.00;0.90;;;3.70;99.90;;;;;;4988627;28;20448;-81
2022/01/31 01:04:08;;;;;;;2.57;1.37;;;3.70;99.90;;;;;;4991402;28;20443;-80
2022/01/31 01:06:34;;;;;;;0.83;0.80;;;3.60;99.90;;;;;;5002547;28;20628;-80
2022/01/31 01:09:01;;;;;;;1.00;0.90;;;3.70;99.90;;;;;;5011857;28;20179;-81
2022/01/31 01:11:26;;;;;;;1.00;0.90;;;3.70;99.90;;;;;;5010964;28;20192;-81
2022/01/31 01:13:52;;;;;;;1.13;1.03;;;3.70;99.90;;;;;;5010642;28;20865;-81
2022/01/31 01:16:18;;;;;;;1.17;1.07;;;3.60;99.90;;;;;;5006078;28;20621;-81
2022/01/31 01:18:43;;;;;;;1.40;1.30;;;3.60;99.90;;;;;;5007378;28;20227;-81
2022/01/31 01:21:09;;;;;;;1.00;0.90;;;3.60;99.90;;;;;;5009105;28;20552;-81
2022/01/31 01:23:34;;;;;;;1.00;0.90;;;3.60;99.90;;;;;;4992760;28;20556;-81
2022/01/31 01:26:00;;;;;;;0.80;0.80;;;3.50;99.90;;;;;;5009709;28;20187;-81
2022/01/31 01:28:26;;;;;;;2.27;2.17;;;3.50;99.90;;;;;;5007054;28;20660;-81
2022/01/31 01:30:54;;;;;;;0.80;0.70;;;3.50;99.90;;;;;;4996654;28;20630;-81
2022/01/31 01:33:22;;;;;;;0.80;0.80;;;3.40;99.90;;;;;;4992056;28;20482;-80
2022/01/31 01:35:50;;;;;;;0.80;0.70;;;3.40;99.90;;;;;;5007877;28;20524;-81
2022/01/31 01:38:19;;;;;;;0.90;0.80;;;3.40;99.90;;;;;;5003676;28;20873;-81
2022/01/31 01:40:46;;;;;;;1.00;0.90;;;3.40;99.90;;;;;;5007078;28;20991;-81
2022/01/31 01:43:14;;;;;;;0.93;0.83;;;3.40;99.90;;;;;;5011763;28;20470;-81
2022/01/31 01:45:41;;;;;;;1.00;0.90;;;3.40;99.90;;;;;;5006014;28;20459;-81
2022/01/31 01:48:08;;;;;;;0.97;0.87;;;3.40;99.90;;;;;;5005201;28;20462;-81
2022/01/31 01:50:35;;;;;;;0.80;0.80;;;3.40;99.90;;;;;;5006492;28;20501;-81
2022/01/31 01:53:02;;;;;;;0.80;0.80;;;3.40;99.90;;;;;;5011116;28;20483;-80
2022/01/31 01:55:28;;;;;;;1.00;0.90;;;3.40;99.90;;;;;;5009123;28;20937;-82
2022/01/31 01:57:54;;;;;;;0.97;0.87;;;3.40;99.90;;;;;;5005555;28;20455;-81
2022/01/31 02:00:25;;;;;;;0.87;0.80;;;3.40;99.90;;;;;;5009318;28;20196;-81
2022/01/31 02:02:51;;;;;;;0.83;0.80;;;3.40;99.90;;;;;;5003912;28;20463;-81
2022/01/31 02:05:17;;;;;;;1.10;1.00;;;3.40;99.90;;;;;;5007679;28;20438;-81
2022/01/31 02:07:43;;;;;;;0.83;0.80;;;3.40;99.90;;;;;;5006690;28;20458;-81
2022/01/31 02:10:09;;;;;;;1.00;0.90;;;3.40;99.90;;;;;;5008248;28;20443;-81
2022/01/31 02:12:39;;;;;;;0.90;0.80;;;3.40;99.90;;;;;;5007733;28;20694;-81
2022/01/31 02:15:06;;;;;;;0.90;0.80;;;3.40;99.90;;;;;;4981067;28;20459;-80
2022/01/31 02:17:31;;;;;;;0.83;0.80;;;3.40;99.90;;;;;;4989495;28;20479;-81
2022/01/31 02:19:57;;;;;;;1.30;1.20;;;3.50;99.90;;;;;;5009396;28;20525;-81
2022/01/31 02:22:22;;;;;;;0.90;0.80;;;3.50;99.90;;;;;;5002257;28;20207;-81
2022/01/31 02:24:48;;;;;;;0.87;0.80;;;3.50;99.90;;;;;;5004179;28;20185;-81
2022/01/31 02:27:13;;;;;;;5.63;2.20;;;3.50;99.90;;;;;;5004785;28;20634;-81
2022/01/31 02:29:39;;;;;;;0.80;0.77;;;3.40;99.90;;;;;;5007641;28;20180;-81
2022/01/31 02:32:04;;;;;;;1.53;1.13;;;3.30;99.90;;;;;;5004581;28;20665;-81
2022/01/31 02:34:30;;;;;;;4.30;3.90;;;3.30;99.90;;;;;;4987213;28;20799;-82
2022/01/31 02:36:55;;;;;;;0.80;0.70;;;3.30;99.90;;;;;;5008735;28;20236;-81
2022/01/31 02:39:21;;;;;;;0.80;0.70;;;3.10;99.90;;;;;;5006405;28;20656;-81
2022/01/31 02:41:48;;;;;;;0.80;0.77;;;3.10;99.90;;;;;;5008116;28;20215;-81
2022/01/31 02:44:15;;;;;;;0.90;0.80;;;3.10;99.90;;;;;;4992507;28;20893;-81
2022/01/31 02:46:51;;;;;;;1.00;0.90;;;3.00;99.90;;;;;;5008503;28;20993;-82
2022/01/31 02:49:21;;;;;;;0.90;0.80;;;3.00;99.90;;;;;;5007771;28;20452;-81
2022/01/31 02:51:52;;;;;;;1.00;0.90;;;2.90;99.90;;;;;;4988553;28;20534;-81
2022/01/31 02:54:18;;;;;;;1.00;0.90;;;2.90;99.90;;;;;;5004224;28;20854;-82
2022/01/31 02:56:43;;;;;;;1.00;0.90;;;2.80;99.90;;;;;;5005945;28;20454;-82
2022/01/31 02:59:09;;;;;;;0.90;0.80;;;2.70;99.90;;;;;;5007149;28;20677;-82
2022/01/31 03:01:36;;;;;;;1.00;0.90;;;2.80;99.90;;;;;;5002147;28;20180;-81
2022/01/31 03:04:02;;;;;;;1.10;1.00;;;2.70;99.90;;;;;;5007668;28;20558;-82
2022/01/31 03:06:27;;;;;;;0.93;0.83;;;2.70;99.90;;;;;;5004306;28;20451;-82
2022/01/31 03:08:53;;;;;;;1.00;0.90;;;2.50;99.90;;;;;;5008641;28;20262;-81
2022/01/31 03:11:18;;;;;;;0.97;0.87;;;2.70;99.90;;;;;;5002415;28;20271;-82
2022/01/31 03:13:44;;;;;;;0.90;0.80;;;2.70;99.90;;;;;;5008189;28;20232;-82
2022/01/31 03:16:09;;;;;;;0.90;0.80;;;2.70;99.90;;;;;;5008264;28;20220;-82
2022/01/31 03:18:35;;;;;;;1.00;0.90;;;2.70;99.90;;;;;;5008827;28;20231;-82
2022/01/31 03:21:00;;;;;;;1.10;1.00;;;2.70;99.90;;;;;;4997875;28;20176;-82
2022/01/31 03:23:26;;;;;;;0.90;0.80;;;2.70;99.90;;;;;;5006415;28;20188;-81
2022/01/31 03:25:51;;;;;;;1.00;0.90;;;2.70;99.90;;;;;;4999812;28;20208;-82
2022/01/31 03:28:17;;;;;;;1.37;1.27;;;2.70;99.90;;;;;;5002571;28;20185;-81
2022/01/31 03:30:43;;;;;;;0.87;0.80;;;2.70;99.90;;;;;;4984994;28;20176;-81
2022/01/31 03:33:08;;;;;;;1.00;0.90;;;2.60;99.90;;;;;;5004315;28;20212;-82
2022/01/31 03:35:34;;;;;;;1.00;0.90;;;2.60;99.90;;;;;;5008944;28;20224;-81
2022/01/31 03:37:59;;;;;;;1.00;0.90;;;2.60;99.90;;;;;;5000093;28;20253;-82
2022/01/31 03:40:25;;;;;;;1.00;0.90;;;2.50;99.90;;;;;;5001998;28;21290;-82
2022/01/31 03:42:50;;;;;;;10.93;2.20;;;2.50;99.90;;;;;;5007658;28;20733;-83
2022/01/31 03:45:16;;;;;;;1.00;0.90;;;2.50;99.90;;;;;;5007224;28;20180;-82
2022/01/31 03:47:45;;;;;;;0.87;0.80;;;2.50;99.90;;;;;;5006865;28;20198;-81
2022/01/31 03:50:15;;;;;;;0.90;0.80;;;2.40;99.90;;;;;;5008288;28;20180;-80
2022/01/31 03:52:42;;;;;;;1.00;0.90;;;2.40;99.90;;;;;;5004184;28;20479;-81
2022/01/31 03:55:09;;;;;;;1.00;0.90;;;2.40;99.90;;;;;;5000768;28;20570;-81
2022/01/31 03:57:35;;;;;;;1.00;0.90;;;2.30;99.90;;;;;;5000502;28;20459;-81
2022/01/31 04:00:04;;;;;;;0.80;0.80;;;2.30;99.90;;;;;;5006141;28;21141;-81
2022/01/31 04:02:29;;;;;;;0.90;0.90;;;2.30;99.90;;;;;;5003018;28;20226;-81
2022/01/31 04:04:55;;;;;;;1.07;0.97;;;2.30;99.90;;;;;;5008035;28;20541;-82
2022/01/31 04:07:20;;;;;;;1.00;0.90;;;2.20;99.90;;;;;;5003942;28;20705;-81
2022/01/31 04:09:46;;;;;;;1.00;0.90;;;2.30;99.90;;;;;;4989800;28;20250;-82
2022/01/31 04:12:11;;;;;;;0.97;0.90;;;2.20;99.90;;;;;;5006925;28;20267;-81
2022/01/31 04:14:37;;;;;;;0.97;0.90;;;2.20;99.90;;;;;;5005161;28;20200;-82
2022/01/31 04:17:07;;;;;;;1.00;0.90;;;2.20;99.90;;;;;;5008033;28;20664;-82
2022/01/31 04:19:32;;;;;;;0.80;0.80;;;2.20;99.90;;;;;;4986485;28;20474;-82
2022/01/31 04:21:58;;;;;;;1.47;1.37;;;2.20;99.90;;;;;;5001829;28;21169;-82
2022/01/31 04:24:30;;;;;;;1.10;1.00;;;2.10;99.90;;;;;;4990575;28;20316;-82
2022/01/31 04:26:59;;;;;;;1.00;0.90;;;2.10;99.90;;;;;;5005674;28;20188;-80
2022/01/31 04:29:28;;;;;;;1.00;0.90;;;2.10;99.90;;;;;;5000997;28;20443;-82
2022/01/31 04:31:54;;;;;;;1.00;0.90;;;2.10;99.90;;;;;;5007968;28;20530;-82
2022/01/31 04:34:20;;;;;;;0.80;0.80;;;2.10;99.90;;;;;;5004192;28;20577;-82
2022/01/31 04:36:46;;;;;;;1.00;0.90;;;2.10;99.90;;;;;;5003151;28;20990;-82
2022/01/31 04:39:16;;;;;;;1.00;0.90;;;2.10;99.90;;;;;;5001859;28;20470;-81
2022/01/31 04:41:42;;;;;;;1.00;0.90;;;2.10;99.90;;;;;;4987553;28;20613;-81
2022/01/31 04:44:09;;;;;;;1.37;1.27;;;2.20;99.90;;;;;;5006559;28;20578;-81
2022/01/31 04:46:35;;;;;;;2.13;2.03;;;2.10;99.90;;;;;;5006380;28;20475;-82
2022/01/31 04:49:00;;;;;;;1.00;0.90;;;2.20;99.90;;;;;;5007119;28;20471;-82
2022/01/31 04:51:26;;;;;;;0.93;0.87;;;2.10;99.90;;;;;;4986923;28;21034;-81
2022/01/31 04:53:51;;;;;;;1.00;0.90;;;2.10;99.90;;;;;;5008523;28;20659;-82
2022/01/31 04:56:17;;;;;;;1.07;0.97;;;2.10;99.90;;;;;;5007018;28;20291;-82
2022/01/31 04:58:43;;;;;;;0.80;0.80;;;2.10;99.90;;;;;;5002449;28;20299;-82
2022/01/31 05:01:09;;;;;;;1.03;0.93;;;2.10;99.90;;;;;;5012033;28;20455;-81
2022/01/31 05:03:34;;;;;;;0.80;0.80;;;2.10;99.90;;;;;;5012147;28;20192;-82
2022/01/31 05:06:00;;;;;;;0.83;0.80;;;2.00;99.90;;;;;;5008974;28;20403;-82
2022/01/31 05:08:28;;;;;;;1.00;0.90;;;2.00;99.90;;;;;;4994196;28;20598;-81
2022/01/31 05:10:54;;;;;;;1.43;1.33;;;2.00;99.90;;;;;;5007071;28;20217;-81
2022/01/31 05:13:19;;;;;;;1.00;0.90;;;2.00;99.90;;;;;;5007550;28;20539;-82
2022/01/31 05:15:46;;;;;;;0.80;0.70;;;2.10;99.90;;;;;;5007214;28;20186;-81
2022/01/31 05:18:12;;;;;;;1.10;1.00;;;2.00;99.90;;;;;;5003829;28;20954;-82
2022/01/31 05:20:39;;;;;;;1.57;1.47;;;1.90;99.90;;;;;;5008366;28;20439;-81
2022/01/31 05:23:06;;;;;;;1.50;1.40;;;1.90;99.90;;;;;;5002291;28;20443;-82
2022/01/31 05:25:32;;;;;;;1.00;0.90;;;1.90;99.90;;;;;;5000887;28;20451;-81
2022/01/31 05:27:57;;;;;;;0.90;0.90;;;1.90;99.90;;;;;;4985436;28;20462;-82
2022/01/31 05:30:23;;;;;;;0.80;0.80;;;1.90;99.90;;;;;;4990040;28;20444;-81
2022/01/31 05:32:48;;;;;;;1.20;1.10;;;1.80;99.90;;;;;;4991594;28;20243;-81
2022/01/31 05:35:14;;;;;;;1.00;0.90;;;1.90;99.90;;;;;;5007522;28;20184;-81
2022/01/31 05:37:41;;;;;;;1.00;0.90;;;1.80;99.90;;;;;;5007163;28;20267;-81
2022/01/31 05:40:07;;;;;;;0.80;0.80;;;1.80;99.90;;;;;;5008034;28;20323;-81
2022/01/31 05:42:33;;;;;;;0.90;0.80;;;1.80;99.90;;;;;;4993851;28;20447;-81
2022/01/31 05:44:59;;;;;;;0.80;0.80;;;1.80;99.90;;;;;;4992453;28;20530;-81
2022/01/31 05:47:24;;;;;;;0.80;0.80;;;1.80;99.90;;;;;;5008758;28;20187;-82
2022/01/31 05:49:50;;;;;;;0.97;0.90;;;1.90;99.90;;;;;;5004293;28;20191;-82
2022/01/31 05:52:16;;;;;;;1.00;0.90;;;1.80;99.90;;;;;;5006619;28;20218;-82
2022/01/31 05:54:42;;;;;;;0.80;0.70;;;1.80;99.90;;;;;;5007133;28;20199;-82
2022/01/31 05:57:08;;;;;;;1.10;1.00;;;1.80;99.90;;;;;;5007419;28;20526;-82
2022/01/31 05:59:35;;;;;;;1.00;0.90;;;1.80;99.90;;;;;;5009344;28;20270;-82
2022/01/31 06:02:04;;;;;;;1.10;1.00;;;1.80;99.90;;;;;;5007448;28;21024;-81
2022/01/31 06:04:32;;;;;;;1.00;0.90;;;1.80;99.90;;;;;;5008922;28;20462;-82
2022/01/31 06:06:59;;;;;;;1.73;1.63;;;1.90;99.90;;;;;;5006973;28;20942;-83
2022/01/31 06:09:27;;;;;;;1.07;0.97;;;1.90;99.90;;;;;;5002816;28;20439;-83
2022/01/31 06:11:53;;;;;;;0.93;0.90;;;1.90;99.90;;;;;;4998434;28;20440;-83
2022/01/31 06:14:18;;;;;;;1.20;1.10;;;1.90;99.90;;;;;;5006974;28;20907;-83
2022/01/31 06:16:44;;;;;;;1.50;1.40;;;1.90;99.90;;;;;;4989617;28;20188;-83
2022/01/31 06:19:10;;;;;;;0.80;0.80;;;1.90;99.90;;;;;;5004042;28;20275;-82
2022/01/31 06:21:35;;;;;;;0.80;0.80;;;1.90;99.90;;;;;;5006603;28;20685;-82
2022/01/31 06:24:01;;;;;;;1.00;0.90;;;1.90;99.90;;;;;;5001743;28;20199;-82
2022/01/31 06:26:28;;;;;;;1.10;1.00;;;1.90;99.90;;;;;;5005771;28;20195;-82
2022/01/31 06:28:53;;;;;;;0.90;0.90;;;1.90;99.90;;;;;;4998185;28;20189;-82
2022/01/31 06:31:19;;;;;;;2.03;1.93;;;1.90;99.90;;;;;;4983087;28;20466;-81
2022/01/31 06:33:44;;;;;;;1.00;0.90;;;1.90;99.90;;;;;;5003728;28;20239;-81
2022/01/31 06:36:10;;;;;;;1.00;0.90;;;1.90;99.90;;;;;;5003460;28;20243;-81
2022/01/31 06:38:38;;;;;;;1.00;0.90;;;1.90;99.90;;;;;;5002849;28;20282;-82
2022/01/31 06:41:04;;;;;;;1.07;0.97;;;1.90;99.90;;;;;;5006960;28;20188;-81
2022/01/31 06:43:29;;;;;;;1.10;1.00;;;1.80;99.90;;;;;;5006700;28;20458;-82
2022/01/31 06:45:55;;;;;;;1.10;1.00;;;1.80;99.90;;;;;;5007187;28;20227;-82
2022/01/31 06:48:21;;;;;;;0.97;0.90;;;1.90;99.90;;;;;;5005871;28;20717;-82
2022/01/31 06:50:46;;;;;;;1.00;0.90;;;1.90;99.90;;;;;;5003573;28;20554;-82
2022/01/31 06:53:13;;;;;;;1.40;1.30;;;1.80;99.90;;;;;;5008358;28;20216;-82
2022/01/31 06:55:39;;;;;;;1.00;0.90;;;1.90;99.90;;;;;;5000789;28;22021;-82
2022/01/31 06:58:04;;;;;;;0.80;0.80;;;1.80;99.90;;;;;;5002504;28;21211;-82
2022/01/31 07:00:30;;;;;;;1.00;0.90;;;1.80;99.90;;;;;;5007850;28;20446;-82
2022/01/31 07:02:56;;;;;;;1.30;1.20;;;1.80;99.90;;;;;;5008011;28;20193;-82
2022/01/31 07:05:22;;;;;;;1.00;0.90;;;1.90;99.90;;;;;;5004148;28;20188;-82
2022/01/31 07:07:48;;;;;;;1.00;0.90;;;1.90;99.90;;;;;;4989901;28;20192;-82
2022/01/31 07:10:14;;;;;;;1.00;0.90;;;1.80;99.90;;;;;;5000747;28;20220;-82
2022/01/31 07:12:47;;;;;;;1.30;1.20;;;1.80;99.90;;;;;;5008199;28;20891;-82
2022/01/31 07:15:12;;;;;;;1.00;0.90;;;1.90;99.90;;;;;;5003131;28;20192;-83
2022/01/31 07:17:38;;;;;;;1.20;1.10;;;1.80;99.90;;;;;;5007924;28;20512;-81
2022/01/31 07:20:08;;;;;;;1.00;0.90;;;1.90;99.90;;;;;;5007079;28;20224;-82
2022/01/31 07:22:37;;;;;;;1.00;0.90;;;1.90;99.90;;;;;;5006034;28;20193;-81
2022/01/31 07:25:21;;;;;;;1.00;0.90;;;1.90;99.90;;;;;;4998695;28;20540;-81
2022/01/31 07:27:47;;;;;;;1.00;0.90;;;2.00;99.90;;;;;;5002825;28;20444;-82
2022/01/31 07:30:13;;;;;;;1.73;1.63;;;2.10;99.90;;;;;;4997561;28;20462;-83
2022/01/31 07:32:41;;;;;;;1.10;1.00;;;2.10;99.90;;;;;;5005297;28;20238;-82
2022/01/31 07:35:09;;;;;;;1.70;1.60;;;2.00;99.90;;;;;;5003115;28;20479;-82
2022/01/31 07:37:35;;;;;;;1.00;0.90;;;2.10;99.90;;;;;;5004907;28;20557;-82
2022/01/31 07:40:03;;;;;;;1.10;1.00;;;2.00;99.90;;;;;;5002069;28;20453;-83
2022/01/31 07:42:29;;;;;;;1.00;0.90;;;2.10;99.90;;;;;;4987353;28;20959;-82
2022/01/31 07:44:54;;;;;;;1.00;0.90;;;2.00;99.90;;;;;;5003203;28;20447;-82
2022/01/31 07:47:20;;;;;;;0.97;0.87;;;2.00;99.90;;;;;;5006838;28;20192;-82
2022/01/31 07:49:46;;;;;;;1.00;0.90;;;2.00;99.90;;;;;;5004241;28;20189;-83
2022/01/31 07:52:11;;;;;;;0.87;0.80;;;2.00;99.90;;;;;;4984234;28;20247;-84
2022/01/31 07:54:40;;;;;;;1.00;0.90;;;2.00;99.90;;;;;;4992042;28;20646;-83
2022/01/31 07:57:05;;;;;;;1.10;1.00;;;2.00;99.90;;;;;;5004976;28;20207;-83
2022/01/31 07:59:31;;;;;;;0.87;0.80;;;2.00;99.90;;;;;;5003341;28;21031;-84
2022/01/31 08:01:57;;;;;;;1.00;0.90;;;2.00;99.90;;;;;;4982074;28;20176;-83
2022/01/31 08:04:22;;;;;;;1.03;0.93;;;2.00;99.90;;;;;;5002165;28;20178;-83
2022/01/31 08:06:48;;;;;;;0.93;0.83;;;2.00;99.90;;;;;;5004944;28;20192;-83
2022/01/31 08:09:13;;;;;;;1.00;0.90;;;2.10;99.90;;;;;;5000489;28;20192;-83
2022/01/31 08:11:39;;;;;;;0.80;0.80;;;2.10;99.90;;;;;;5005039;28;20193;-83
2022/01/31 08:14:09;;;;;;;1.00;0.90;;;2.00;99.90;;;;;;5003053;28;20212;-82
2022/01/31 08:16:39;;;;;;;0.97;0.90;;;2.00;99.90;;;;;;5001159;28;20231;-82
2022/01/31 08:19:07;;;;;;;0.93;0.83;;;2.00;99.90;;;;;;5006217;28;20457;-83
2022/01/31 08:21:33;;;;;;;0.80;0.70;;;2.00;99.90;;;;;;5001127;28;20443;-82
2022/01/31 08:23:59;;;;;;;0.80;0.80;;;2.10;99.90;;;;;;5004003;28;20586;-83
2022/01/31 08:26:24;;;;;;;0.90;0.80;;;2.10;99.90;;;;;;5000813;28;20510;-82
2022/01/31 08:28:56;;;;;;;2.13;2.03;;;2.00;99.90;;;;;;5010712;28;20215;-83
2022/01/31 08:34:03;;;;;;;1.00;0.90;;;2.10;99.90;;;;;;5004452;28;20505;-83
2022/01/31 08:36:31;;;;;;;1.30;1.20;;;2.10;99.90;;;;;;5009230;28;20528;-83
2022/01/31 08:38:57;;;;;;;1.40;1.30;;;2.00;99.90;;;;;;5005582;28;20923;-83
2022/01/31 08:41:24;;;;;;;1.00;0.90;;;2.10;99.90;;;;;;5008159;28;20490;-82
2022/01/31 08:43:50;;;;;;;1.10;1.00;;;2.10;99.90;;;;;;4990984;28;20522;-82
2022/01/31 08:46:19;;;;;;;1.10;1.00;;;2.20;99.90;;;;;;5003503;28;20474;-82
2022/01/31 08:48:44;;;;;;;0.80;0.80;;;2.20;99.90;;;;;;4998348;28;20546;-82
2022/01/31 08:51:12;;;;;;;1.00;0.90;;;2.20;99.90;;;;;;5001519;28;20536;-82
2022/01/31 08:53:39;;;;;;;1.80;1.70;;;2.20;99.90;;;;;;5009166;28;20220;-83
2022/01/31 08:56:08;;;;;;;1.20;1.10;;;2.20;99.90;;;;;;5005049;28;20420;-82
2022/01/31 08:58:36;;;;;;;1.00;0.90;;;2.30;99.90;;;;;;5004881;28;20447;-83
2022/01/31 09:01:04;;;;;;;1.87;1.77;;;2.40;99.90;;;;;;4989120;28;20802;-82
2022/01/31 09:06:15;;;;;;;0.97;0.87;;;2.50;99.90;;;;;;4999230;28;20446;-82
2022/01/31 09:08:41;;;;;;;1.10;1.00;;;2.50;99.90;;;;;;4992908;28;20971;-82
2022/01/31 09:11:11;;;;;;;0.90;0.80;;;2.50;99.90;;;;;;4991186;28;20632;-82
2022/01/31 09:13:37;;;;;;;1.00;0.90;;;2.50;99.90;;;;;;4987104;28;20766;-82
2022/01/31 09:16:04;;;;;;;1.00;0.90;;;2.50;99.90;;;;;;4990285;28;20511;-82
2022/01/31 09:18:29;;;;;;;1.00;0.90;;;2.50;99.90;;;;;;4993103;28;20439;-82
2022/01/31 09:20:57;;;;;;;1.00;0.90;;;2.60;99.90;;;;;;4992779;28;20869;-82
2022/01/31 09:23:22;;;;;;;1.00;0.90;;;2.70;99.90;;;;;;5002999;28;20593;-84
2022/01/31 09:25:48;;;;;;;0.80;0.80;;;2.70;99.90;;;;;;4999998;28;20470;-84
2022/01/31 09:28:14;;;;;;;1.77;1.67;;;2.80;99.90;;;;;;5005510;28;20188;-84
2022/01/31 09:30:42;;;;;;;0.80;0.80;;;2.70;99.90;;;;;;5002607;28;20187;-84
2022/01/31 09:33:07;;;;;;;1.00;0.90;;;2.70;99.90;;;;;;5009878;28;20518;-85
2022/01/31 09:35:33;;;;;;;0.80;0.70;;;2.90;99.90;;;;;;5002348;28;20477;-85
2022/01/31 09:38:00;;;;;;;1.00;0.90;;;2.90;99.90;;;;;;5007804;28;20562;-84
2022/01/31 09:40:27;;;;;;;0.97;0.87;;;2.90;99.90;;;;;;4990689;28;20958;-85
2022/01/31 09:43:08;;;;;;;1.00;0.90;;;2.80;99.90;;;;;;5002890;28;20454;-85
2022/01/31 09:45:53;;;;;;;0.80;0.77;;;2.80;99.90;;;;;;5005046;28;20559;-85
2022/01/31 09:48:36;;;;;;;1.73;1.63;;;2.90;99.90;;;;;;5003370;28;20446;-85
2022/01/31 09:51:06;;;;;;;1.27;1.17;;;3.00;99.90;;;;;;5002998;28;20451;-86
2022/01/31 09:53:34;;;;;;;1.00;0.90;;;3.00;99.90;;;;;;5000768;28;21029;-85
2022/01/31 09:56:00;;;;;;;1.50;1.40;;;2.90;99.90;;;;;;4988289;28;20946;-84
2022/01/31 09:58:29;;;;;;;1.00;0.90;;;2.90;99.90;;;;;;5007500;28;20440;-86
2022/01/31 10:01:03;;;;;;;1.20;1.10;;;2.90;99.90;;;;;;5005312;28;20438;-85
2022/01/31 10:03:28;;;;;;;2.30;1.27;;;2.80;99.90;;;;;;5005378;28;20448;-87
2022/01/31 10:05:54;;;;;;;0.80;0.70;;;2.70;99.90;;;;;;5007514;28;20435;-87
2022/01/31 10:08:20;;;;;;;1.00;0.90;;;2.80;99.90;;;;;;5004783;28;20196;-86
2022/01/31 10:10:48;;;;;;;0.83;0.80;;;2.90;99.90;;;;;;5001203;28;20192;-85
2022/01/31 10:16:26;;;;;;;1.13;1.03;;;2.90;99.90;;;;;;5006979;28;20434;-84
2022/01/31 10:19:00;;;;;;;1.10;1.00;;;3.00;99.90;;;;;;5007853;28;20926;-88
2022/01/31 10:21:26;;;;;;;0.90;0.80;;;3.00;99.90;;;;;;4999761;28;20484;-86
2022/01/31 10:23:51;;;;;;;0.97;0.87;;;3.20;99.90;;;;;;5009624;28;20912;-86
2022/01/31 10:26:31;;;;;;;1.00;0.90;;;3.10;99.90;;;;;;5002032;28;20563;-86
2022/01/31 10:29:29;;;;;;;1.00;0.90;;;3.20;99.90;;;;;;5006700;28;20560;-86
2022/01/31 10:32:14;;;;;;;1.37;1.27;;;3.10;99.90;;;;;;4974028;28;20511;-86
2022/01/31 10:34:51;;;;;;;0.90;0.80;;;3.10;99.90;;;;;;4990489;28;20498;-85
2022/01/31 10:37:20;;;;;;;1.00;0.90;;;3.00;99.90;;;;;;5002225;28;20498;-85
2022/01/31 10:54:03;;;;;;;0.87;0.80;;;3.40;99.90;;;;;;5008134;28;21043;-86
2022/01/31 10:56:40;;;;;;;1.30;1.20;;;3.20;99.90;;;;;;4991437;28;20518;-85
2022/01/31 10:59:11;;;;;;;2.60;2.40;;;3.30;99.90;;;;;;4999497;28;20512;-85
2022/01/31 11:01:38;;;;;;;6.53;1.93;;;3.30;99.90;;;;;;5002257;28;20435;-85
2022/01/31 11:04:14;;;;;;;1.63;1.53;;;3.40;99.90;;;;;;4994436;28;20533;-85
2022/01/31 11:06:42;;;;;;;1.57;1.33;;;3.30;99.90;;;;;;5007412;28;20465;-85
2022/01/31 11:09:10;;;;;;;0.90;0.73;;;3.30;99.90;;;;;;5002420;28;20497;-85
2022/01/31 11:11:39;;;;;;;1.00;0.90;;;3.10;99.90;;;;;;4999494;28;20501;-84
2022/01/31 11:14:06;;;;;;;1.60;1.40;;;3.10;99.90;;;;;;4984701;28;20889;-85
2022/01/31 11:16:32;;;;;;;1.20;1.10;;;3.10;99.90;;;;;;5007001;28;20523;-85
2022/01/31 11:19:02;;;;;;;1.20;1.10;;;3.20;99.90;;;;;;5008755;28;20476;-85
2022/01/31 11:21:32;;;;;;;0.90;0.80;;;3.30;99.90;;;;;;5007616;28;20523;-85
2022/01/31 11:24:03;;;;;;;1.30;1.20;;;3.30;99.90;;;;;;5008509;28;20443;-85
2022/01/31 11:26:35;;;;;;;0.93;0.83;;;3.30;99.90;;;;;;5005766;28;20534;-86
2022/01/31 11:29:02;;;;;;;0.90;0.80;;;3.40;99.90;;;;;;5004999;28;21001;-86
2022/01/31 11:31:28;;;;;;;1.10;1.00;;;3.40;99.90;;;;;;4988688;28;20474;-87
2022/01/31 11:33:56;;;;;;;0.87;0.80;;;3.40;99.90;;;;;;4984226;28;20558;-83
2022/01/31 11:36:22;;;;;;;0.90;0.80;;;3.40;99.90;;;;;;5002197;28;20475;-86
2022/01/31 11:38:48;;;;;;;1.00;0.90;;;3.30;99.90;;;;;;5001455;28;20459;-87
2022/01/31 11:41:16;;;;;;;1.47;1.37;;;3.40;99.90;;;;;;4987902;28;20185;-85
2022/01/31 11:43:52;;;;;;;1.50;1.40;;;3.40;99.90;;;;;;4999504;28;20439;-84
2022/01/31 11:46:24;;;;;;;1.00;0.90;;;3.50;99.90;;;;;;4996774;28;20472;-85
2022/01/31 11:48:52;;;;;;;1.10;1.00;;;3.50;99.90;;;;;;5005666;28;20516;-84
2022/01/31 11:51:19;;;;;;;1.20;1.10;;;3.50;99.90;;;;;;4986685;28;20435;-83
2022/01/31 11:53:45;;;;;;;1.43;1.33;;;3.50;99.90;;;;;;5000472;28;20507;-84
2022/01/31 11:56:20;;;;;;;13.50;2.13;;;3.50;99.90;;;;;;5004500;28;20451;-84
2022/01/31 11:58:52;;;;;;;1.57;1.47;;;3.60;99.90;;;;;;5007078;28;20516;-85
2022/01/31 12:01:19;;;;;;;1.33;1.23;;;3.60;99.90;;;;;;5004212;28;20420;-83
2022/01/31 12:03:59;;;;;;;4.90;2.50;;;3.50;99.90;;;;;;5003271;28;20529;-85
2022/01/31 12:06:26;;;;;;;0.90;0.77;;;3.60;99.90;;;;;;5002420;28;20510;-85
2022/01/31 12:08:54;;;;;;;1.63;1.53;;;3.60;99.90;;;;;;5008097;28;20527;-83
2022/01/31 12:11:27;;;;;;;0.87;0.80;;;3.60;99.90;;;;;;5010671;28;20800;-84
2022/01/31 12:14:08;;;;;;;1.10;1.00;;;3.60;99.90;;;;;;5006820;28;20497;-84
2022/01/31 12:17:11;;;;;;;0.90;0.80;;;3.70;99.90;;;;;;5003966;28;20437;-85
2022/01/31 12:22:08;;;;;;;1.00;0.90;;;3.70;99.90;;;;;;5008959;28;20458;-84
2022/01/31 12:24:33;;;;;;;1.70;1.60;;;3.80;99.90;;;;;;5010035;28;20439;-85
2022/01/31 12:27:08;;;;;;;0.80;0.80;;;3.60;99.90;;;;;;4994090;28;21034;-84
2022/01/31 12:29:38;;;;;;;0.80;0.70;;;3.60;99.90;;;;;;5009982;28;20184;-84
2022/01/31 12:32:34;;;;;;;0.90;0.80;;;3.60;99.90;;;;;;5005930;28;20459;-85
2022/01/31 12:35:06;;;;;;;1.00;0.90;;;3.60;99.90;;;;;;5008374;28;20451;-84
2022/01/31 12:37:38;;;;;;;2.07;1.97;;;3.60;99.90;;;;;;4986101;28;20511;-84
2022/01/31 12:40:29;;;;;;;5.60;1.63;;;3.60;99.90;;;;;;5003532;28;20470;-84
2022/01/31 12:45:53;;;;;;;1.10;1.00;;;3.60;99.90;;;;;;5008351;28;20438;-84
2022/01/31 12:48:23;;;;;;;0.83;0.70;;;3.60;99.90;;;;;;4997890;28;20439;-84
2022/01/31 12:50:48;;;;;;;1.00;0.90;;;3.60;99.90;;;;;;5009448;28;20419;-84
2022/01/31 12:53:23;;;;;;;8.00;2.87;;;3.70;99.90;;;;;;5010594;28;20458;-84
2022/01/31 12:56:07;;;;;;;1.23;1.13;;;3.70;99.90;;;;;;5001917;28;20199;-85
2022/01/31 12:58:39;;;;;;;0.80;0.73;;;3.60;99.90;;;;;;5001031;28;20498;-84
2022/01/31 13:01:15;;;;;;;1.30;1.20;;;3.60;99.90;;;;;;5003760;28;20447;-84
2022/01/31 13:03:44;;;;;;;1.20;1.10;;;3.70;99.90;;;;;;4990306;28;20493;-84
2022/01/31 13:06:39;;;;;;;1.77;1.67;;;3.70;99.90;;;;;;5000043;28;20535;-84
2022/01/31 13:09:06;;;;;;;1.10;0.97;;;3.70;99.90;;;;;;5001415;28;21030;-84
2022/01/31 13:11:32;;;;;;;0.90;0.80;;;3.60;99.90;;;;;;5006000;28;20438;-84
2022/01/31 13:14:24;;;;;;;0.90;0.80;;;3.70;99.90;;;;;;5004736;28;20478;-84
2022/01/31 13:17:12;;;;;;;1.93;1.80;;;3.70;99.90;;;;;;4981374;28;20522;-84
2022/01/31 13:19:40;;;;;;;1.00;0.90;;;3.70;99.90;;;;;;4993487;28;20450;-83
2022/01/31 13:22:32;;;;;;;1.00;0.90;;;3.70;99.90;;;;;;5010693;28;20446;-84
2022/01/31 13:25:01;;;;;;;0.80;0.70;;;3.70;99.90;;;;;;5005120;28;20454;-83
2022/01/31 13:27:32;;;;;;;1.87;1.73;;;3.60;99.90;;;;;;5008803;28;20455;-84
2022/01/31 13:29:58;;;;;;;2.60;1.67;;;3.50;99.90;;;;;;4994186;28;20431;-84
2022/01/31 13:32:30;;;;;;;0.90;0.80;;;3.50;99.90;;;;;;5004831;28;20585;-84
2022/01/31 13:35:29;;;;;;;0.93;0.83;;;3.50;99.90;;;;;;5007976;28;20458;-84